Time;durP1;ratioP1;P1;durP2;ratioP2;P2;SDS_P1;SDS_P2;PMS_P1;PMS_P2;Temp;Humidity;BMP_temperature;BMP_pressure;BME280_temperature;BME280_humidity;BME280_pressure;Samples;Min_cycle;Max_cycle;Signal;HPM_P1;HPM_P2
2021/05/16 00:00:57;;;;;;;;;;;8.30;1.00;;;;;;5035229;28;19917;-70
2021/05/16 00:03:23;;;;;;;;;;;8.30;1.00;;;;;;5041953;28;19913;-66
2021/05/16 00:05:49;;;;;;;;;;;8.30;1.00;;;;;;5030548;28;20516;-68
2021/05/16 00:08:14;;;;;;;;;;;8.30;1.00;;;;;;5038362;28;20340;-67
2021/05/16 00:10:40;;;;;;;;;;;8.30;1.00;;;;;;5031882;28;19917;-67
2021/05/16 00:13:06;;;;;;;;;;;8.30;1.00;;;;;;5030869;28;20024;-68
2021/05/16 00:15:32;;;;;;;;;;;8.30;1.00;;;;;;5041141;28;19996;-68
2021/05/16 00:17:58;;;;;;;;;;;8.30;1.00;;;;;;5035279;28;19967;-69
2021/05/16 00:20:26;;;;;;;;;;;8.40;1.00;;;;;;5032656;28;20039;-68
2021/05/16 00:22:52;;;;;;;;;;;8.40;1.00;;;;;;5041111;28;19972;-68
2021/05/16 00:25:18;;;;;;;;;;;8.40;1.00;;;;;;5045033;28;19978;-68
2021/05/16 00:27:44;;;;;;;;;;;8.40;1.00;;;;;;5042905;28;20307;-68
2021/05/16 00:30:10;;;;;;;;;;;8.40;1.00;;;;;;5037177;28;19909;-69
2021/05/16 00:32:36;;;;;;;;;;;8.50;1.00;;;;;;5040249;28;20564;-69
2021/05/16 00:35:03;;;;;;;;;;;8.50;1.00;;;;;;5038473;28;19913;-69
2021/05/16 00:37:28;;;;;;;;;;;8.50;1.00;;;;;;5037127;28;19909;-68
2021/05/16 00:39:55;;;;;;;;;;;8.50;1.00;;;;;;5046577;28;19924;-67
2021/05/16 00:42:20;;;;;;;;;;;8.60;1.00;;;;;;5047509;28;19928;-69
2021/05/16 00:45:15;;;;;;;;;;;8.60;1.00;;;;;;5047562;28;20346;-68
2021/05/16 00:47:51;;;;;;;;;;;8.60;1.00;;;;;;5020916;28;19917;-70
2021/05/16 00:50:18;;;;;;;;;;;8.70;1.00;;;;;;5037997;28;19917;-69
2021/05/16 00:52:43;;;;;;;;;;;8.70;1.00;;;;;;5037324;28;19921;-68
2021/05/16 00:55:10;;;;;;;;;;;8.70;1.00;;;;;;5037277;28;20014;-68
2021/05/16 00:57:36;;;;;;;;;;;8.70;1.00;;;;;;5037564;28;20309;-68
2021/05/16 01:00:02;;;;;;;;;;;8.80;1.00;;;;;;5042396;28;19913;-68
2021/05/16 01:02:27;;;;;;;;;;;8.90;1.00;;;;;;5031337;28;19921;-68
2021/05/16 01:04:53;;;;;;;;;;;8.90;1.00;;;;;;5046167;28;19920;-68
2021/05/16 01:07:18;;;;;;;;;;;9.00;1.00;;;;;;5037453;28;19921;-68
2021/05/16 01:09:44;;;;;;;;;;;9.00;1.00;;;;;;5036354;28;19932;-68
2021/05/16 01:12:10;;;;;;;;;;;9.00;1.00;;;;;;5034376;28;20301;-68
2021/05/16 01:14:39;;;;;;;;;;;9.10;1.00;;;;;;5038936;28;19916;-68
2021/05/16 01:17:05;;;;;;;;;;;9.10;1.00;;;;;;5041280;28;19920;-68
2021/05/16 01:19:31;;;;;;;;;;;9.10;1.00;;;;;;5033758;28;20293;-68
2021/05/16 01:21:57;;;;;;;;;;;9.00;1.00;;;;;;5036447;28;19928;-68
2021/05/16 01:24:24;;;;;;;;;;;9.00;1.00;;;;;;5038646;28;19921;-68
2021/05/16 01:26:50;;;;;;;;;;;8.90;1.00;;;;;;5037680;28;19921;-68
2021/05/16 01:29:17;;;;;;;;;;;8.90;1.00;;;;;;5036250;28;19917;-68
2021/05/16 01:31:42;;;;;;;;;;;8.80;1.00;;;;;;5030142;28;19917;-68
2021/05/16 01:34:08;;;;;;;;;;;8.80;1.00;;;;;;5036469;28;19935;-68
2021/05/16 01:36:34;;;;;;;;;;;8.80;1.00;;;;;;5036480;28;19912;-68
2021/05/16 01:39:00;;;;;;;;;;;8.80;1.00;;;;;;5036653;28;20389;-68
2021/05/16 01:41:25;;;;;;;;;;;8.70;1.00;;;;;;5048054;28;19965;-68
2021/05/16 01:43:52;;;;;;;;;;;8.70;1.00;;;;;;5048004;28;19920;-68
2021/05/16 01:46:18;;;;;;;;;;;8.60;1.00;;;;;;5032262;28;19913;-68
2021/05/16 01:48:43;;;;;;;;;;;8.60;1.00;;;;;;5036419;28;20377;-68
2021/05/16 01:51:09;;;;;;;;;;;8.50;1.00;;;;;;5044618;28;19917;-68
2021/05/16 01:53:35;;;;;;;;;;;8.40;1.00;;;;;;5038294;28;20679;-68
2021/05/16 01:56:01;;;;;;;;;;;8.40;1.00;;;;;;5028759;28;20023;-68
2021/05/16 01:58:27;;;;;;;;;;;8.40;1.00;;;;;;5039065;28;20007;-68
2021/05/16 02:00:52;;;;;;;;;;;8.40;1.00;;;;;;5032201;28;19913;-68
2021/05/16 02:03:18;;;;;;;;;;;8.30;1.00;;;;;;5046268;28;19913;-68
2021/05/16 02:05:44;;;;;;;;;;;8.40;1.00;;;;;;5047554;28;19928;-68
2021/05/16 02:08:09;;;;;;;;;;;8.30;1.00;;;;;;5039399;28;20431;-68
2021/05/16 02:10:35;;;;;;;;;;;8.40;1.00;;;;;;5046735;28;19923;-66
2021/05/16 02:13:01;;;;;;;;;;;8.40;1.00;;;;;;5040139;28;19921;-69
2021/05/16 02:15:26;;;;;;;;;;;8.40;1.00;;;;;;5040626;28;19920;-68
2021/05/16 02:17:55;;;;;;;;;;;8.40;1.00;;;;;;5021180;28;20312;-69
2021/05/16 02:20:21;;;;;;;;;;;8.40;1.00;;;;;;5045836;28;19913;-68
2021/05/16 02:22:46;;;;;;;;;;;8.50;1.00;;;;;;5043113;28;19921;-67
2021/05/16 02:25:12;;;;;;;;;;;8.50;1.00;;;;;;5040655;28;19920;-67
2021/05/16 02:27:38;;;;;;;;;;;8.40;1.00;;;;;;5045943;28;19916;-69
2021/05/16 02:30:04;;;;;;;;;;;8.40;1.00;;;;;;5034999;28;19913;-68
2021/05/16 02:32:30;;;;;;;;;;;8.40;1.00;;;;;;5050769;28;20035;-69
2021/05/16 02:34:55;;;;;;;;;;;8.40;1.00;;;;;;5040499;28;20449;-69
2021/05/16 02:37:21;;;;;;;;;;;8.30;1.00;;;;;;5047847;28;20020;-68
2021/05/16 02:39:46;;;;;;;;;;;8.30;1.00;;;;;;5032101;28;19995;-69
2021/05/16 02:42:12;;;;;;;;;;;8.30;1.00;;;;;;5037371;28;20028;-69
2021/05/16 02:44:37;;;;;;;;;;;8.30;1.00;;;;;;5040068;28;20354;-68
2021/05/16 02:47:03;;;;;;;;;;;8.30;1.00;;;;;;5044454;28;19967;-68
2021/05/16 02:49:29;;;;;;;;;;;8.20;1.00;;;;;;5049583;28;19923;-68
2021/05/16 02:51:55;;;;;;;;;;;8.30;1.00;;;;;;5034896;28;19917;-68
2021/05/16 02:54:20;;;;;;;;;;;8.40;1.00;;;;;;5038909;28;20047;-69
2021/05/16 02:56:46;;;;;;;;;;;8.50;1.00;;;;;;5047245;28;20004;-69
2021/05/16 02:59:11;;;;;;;;;;;8.60;1.00;;;;;;5040394;28;19959;-68
2021/05/16 03:01:37;;;;;;;;;;;8.60;1.00;;;;;;5039071;28;19968;-67
2021/05/16 03:04:02;;;;;;;;;;;8.70;1.00;;;;;;5039550;28;20348;-68
2021/05/16 03:06:28;;;;;;;;;;;8.60;1.00;;;;;;5047970;28;19917;-69
2021/05/16 03:08:53;;;;;;;;;;;8.70;1.00;;;;;;5032375;28;19924;-68
2021/05/16 03:11:19;;;;;;;;;;;8.60;1.00;;;;;;5040097;28;19932;-68
2021/05/16 03:13:44;;;;;;;;;;;8.60;1.00;;;;;;5039045;28;20322;-69
2021/05/16 03:16:10;;;;;;;;;;;8.60;1.00;;;;;;5046609;28;19917;-67
2021/05/16 03:18:35;;;;;;;;;;;8.50;1.00;;;;;;5034198;28;19923;-67
2021/05/16 03:21:01;;;;;;;;;;;8.50;1.00;;;;;;5044455;28;19917;-69
2021/05/16 03:23:26;;;;;;;;;;;8.50;1.00;;;;;;5047878;28;19924;-68
2021/05/16 03:25:57;;;;;;;;;;;8.50;1.00;;;;;;5050230;28;19913;-68
2021/05/16 03:28:22;;;;;;;;;;;8.40;1.00;;;;;;5043551;28;19917;-68
2021/05/16 03:30:48;;;;;;;;;;;8.40;1.00;;;;;;5040458;28;19920;-67
2021/05/16 03:33:13;;;;;;;;;;;8.40;1.00;;;;;;5034360;28;20266;-67
2021/05/16 03:35:39;;;;;;;;;;;8.40;1.00;;;;;;5047690;28;19959;-69
2021/05/16 03:38:04;;;;;;;;;;;8.40;1.00;;;;;;5044228;28;19935;-68
2021/05/16 03:40:30;;;;;;;;;;;8.50;1.00;;;;;;5033150;28;20066;-68
2021/05/16 03:42:55;;;;;;;;;;;8.50;1.00;;;;;;5046740;28;20587;-69
2021/05/16 03:45:21;;;;;;;;;;;8.50;1.00;;;;;;5038063;28;20275;-69
2021/05/16 03:47:46;;;;;;;;;;;8.60;1.00;;;;;;5033430;28;19956;-68
2021/05/16 03:50:12;;;;;;;;;;;8.60;1.00;;;;;;5041540;28;20015;-69
2021/05/16 03:52:39;;;;;;;;;;;8.60;1.00;;;;;;5041458;28;19924;-69
2021/05/16 03:55:06;;;;;;;;;;;8.60;1.00;;;;;;5049854;28;20274;-68
2021/05/16 03:57:31;;;;;;;;;;;8.70;1.00;;;;;;5050195;28;20254;-68
2021/05/16 03:59:56;;;;;;;;;;;8.80;1.00;;;;;;5045930;28;19914;-67
2021/05/16 04:02:22;;;;;;;;;;;8.90;1.00;;;;;;5044443;28;19928;-69
2021/05/16 04:04:47;;;;;;;;;;;9.00;1.00;;;;;;5041735;28;20347;-67
2021/05/16 04:07:13;;;;;;;;;;;9.10;1.00;;;;;;5038445;28;19917;-67
2021/05/16 04:09:38;;;;;;;;;;;9.10;1.00;;;;;;5035380;28;20040;-69
2021/05/16 04:12:05;;;;;;;;;;;9.20;1.00;;;;;;5047145;28;20378;-69
2021/05/16 04:14:30;;;;;;;;;;;9.20;1.00;;;;;;5039568;28;19968;-69
2021/05/16 04:16:56;;;;;;;;;;;9.20;1.00;;;;;;5042971;28;19948;-69
2021/05/16 04:19:21;;;;;;;;;;;9.20;1.00;;;;;;5033115;28;20067;-67
2021/05/16 04:21:47;;;;;;;;;;;9.20;1.00;;;;;;5041112;28;20361;-67
2021/05/16 04:24:13;;;;;;;;;;;9.20;1.00;;;;;;5047932;28;20406;-65
2021/05/16 04:26:38;;;;;;;;;;;9.20;1.00;;;;;;5040528;28;20003;-69
2021/05/16 04:29:04;;;;;;;;;;;9.20;1.00;;;;;;5040962;28;19917;-66
2021/05/16 04:31:30;;;;;;;;;;;9.30;1.00;;;;;;5048956;28;19928;-69
2021/05/16 04:33:55;;;;;;;;;;;9.30;1.00;;;;;;5047722;28;19913;-70
2021/05/16 04:36:21;;;;;;;;;;;9.30;1.00;;;;;;5046818;28;19912;-68
2021/05/16 04:38:48;;;;;;;;;;;9.30;1.00;;;;;;5031745;28;19921;-68
2021/05/16 04:41:14;;;;;;;;;;;9.30;1.00;;;;;;5037448;28;19917;-68
2021/05/16 04:43:39;;;;;;;;;;;9.30;1.00;;;;;;5030286;28;20004;-68
2021/05/16 04:46:05;;;;;;;;;;;9.30;1.00;;;;;;5039414;28;20007;-68
2021/05/16 04:48:30;;;;;;;;;;;9.40;1.00;;;;;;5042616;28;20325;-69
2021/05/16 04:50:56;;;;;;;;;;;9.40;1.00;;;;;;5031953;28;20000;-67
2021/05/16 04:53:22;;;;;;;;;;;9.50;1.00;;;;;;5039991;28;19944;-69
2021/05/16 04:55:47;;;;;;;;;;;9.50;1.00;;;;;;5037931;28;19959;-67
2021/05/16 04:58:13;;;;;;;;;;;9.60;1.00;;;;;;5045932;28;19913;-68
2021/05/16 05:00:38;;;;;;;;;;;9.70;1.00;;;;;;5037236;28;20356;-67
2021/05/16 05:03:04;;;;;;;;;;;9.70;1.00;;;;;;5043163;28;19920;-69
2021/05/16 05:05:30;;;;;;;;;;;9.70;1.00;;;;;;5047123;28;19912;-68
2021/05/16 05:07:55;;;;;;;;;;;9.80;1.00;;;;;;5032872;28;20054;-67
2021/05/16 05:10:21;;;;;;;;;;;10.00;1.00;;;;;;5039725;28;20024;-67
2021/05/16 05:12:46;;;;;;;;;;;10.10;1.00;;;;;;5039404;28;19917;-69
2021/05/16 05:15:12;;;;;;;;;;;10.10;1.00;;;;;;5041219;28;19912;-68
2021/05/16 05:17:40;;;;;;;;;;;10.20;1.00;;;;;;5039664;28;20465;-68
2021/05/16 05:20:07;;;;;;;;;;;10.30;1.00;;;;;;5033238;28;20234;-68
2021/05/16 05:22:32;;;;;;;;;;;10.40;1.00;;;;;;5047564;28;20380;-68
2021/05/16 05:24:58;;;;;;;;;;;10.50;1.00;;;;;;5046480;28;19913;-68
2021/05/16 05:27:24;;;;;;;;;;;10.90;1.00;;;;;;5047075;28;19916;-66
2021/05/16 05:29:50;;;;;;;;;;;11.30;99.90;;;;;;5036511;28;20011;-69
2021/05/16 05:32:15;;;;;;;;;;;11.70;1.00;;;;;;5030619;28;19968;-66
2021/05/16 05:34:41;;;;;;;;;;;12.20;1.00;;;;;;5033375;28;19916;-68
2021/05/16 05:37:06;;;;;;;;;;;12.60;1.00;;;;;;5042054;28;20386;-68
2021/05/16 05:39:32;;;;;;;;;;;12.90;1.00;;;;;;5036907;28;19928;-68
2021/05/16 05:41:57;;;;;;;;;;;13.40;1.00;;;;;;5048074;28;20011;-68
2021/05/16 05:44:23;;;;;;;;;;;13.80;99.90;;;;;;5040629;28;19913;-68
2021/05/16 05:46:48;;;;;;;;;;;14.20;1.00;;;;;;5032026;28;19920;-68
2021/05/16 05:49:14;;;;;;;;;;;14.20;1.00;;;;;;5046916;28;20346;-65
2021/05/16 05:51:39;;;;;;;;;;;13.90;99.90;;;;;;5047301;28;19917;-68
2021/05/16 05:54:05;;;;;;;;;;;13.70;1.00;;;;;;5035058;28;19919;-67
2021/05/16 05:56:31;;;;;;;;;;;13.60;1.00;;;;;;5037593;28;19917;-68
2021/05/16 05:58:56;;;;;;;;;;;13.60;1.00;;;;;;5039780;28;20281;-67
2021/05/16 06:01:22;;;;;;;;;;;13.60;1.00;;;;;;5041508;28;19983;-69
2021/05/16 06:03:49;;;;;;;;;;;13.60;1.00;;;;;;5029765;28;19917;-67
2021/05/16 06:06:14;;;;;;;;;;;13.50;1.00;;;;;;5046709;28;20551;-69
2021/05/16 06:08:40;;;;;;;;;;;13.30;1.00;;;;;;5047266;28;19923;-68
2021/05/16 06:11:05;;;;;;;;;;;13.10;1.00;;;;;;5031183;28;20006;-68
2021/05/16 06:13:31;;;;;;;;;;;12.90;99.90;;;;;;5046666;28;19916;-66
2021/05/16 06:15:57;;;;;;;;;;;12.60;1.00;;;;;;5033437;28;19917;-66
2021/05/16 06:18:23;;;;;;;;;;;12.40;99.90;;;;;;5036942;28;20307;-65
2021/05/16 06:20:50;;;;;;;;;;;12.40;99.90;;;;;;5043743;28;21338;-68
2021/05/16 06:23:17;;;;;;;;;;;12.30;1.00;;;;;;5049591;28;19995;-68
2021/05/16 06:25:46;;;;;;;;;;;12.40;1.00;;;;;;5052027;28;19927;-66
2021/05/16 06:28:12;;;;;;;;;;;12.80;1.00;;;;;;5040653;28;20322;-68
2021/05/16 06:30:37;;;;;;;;;;;13.00;1.00;;;;;;5052677;28;19931;-69
2021/05/16 06:33:04;;;;;;;;;;;13.40;20.00;;;;;;5049088;28;19982;-68
2021/05/16 06:35:29;;;;;;;;;;;13.60;1.00;;;;;;5054560;28;19920;-68
2021/05/16 06:37:55;;;;;;;;;;;14.20;1.00;;;;;;5051940;28;19913;-68
2021/05/16 06:40:20;;;;;;;;;;;16.00;99.90;;;;;;5052033;28;19912;-69
2021/05/16 06:42:46;;;;;;;;;;;18.60;1.00;;;;;;5058931;28;19920;-69
2021/05/16 06:45:12;;;;;;;;;;;21.20;99.90;;;;;;5053424;28;19935;-69
2021/05/16 06:47:37;;;;;;;;;;;23.20;99.90;;;;;;5056575;28;19998;-69
2021/05/16 06:50:04;;;;;;;;;;;24.60;99.90;;;;;;5052873;28;20169;-69
2021/05/16 06:52:30;;;;;;;;;;;25.40;99.90;;;;;;5057238;28;19913;-67
2021/05/16 06:54:55;;;;;;;;;;;25.80;99.90;;;;;;5056308;28;19928;-66
2021/05/16 06:57:21;;;;;;;;;;;26.90;99.90;;;;;;5054625;28;19920;-67
2021/05/16 06:59:46;;;;;;;;;;;27.60;99.90;;;;;;5061555;28;19953;-69
2021/05/16 07:02:12;;;;;;;;;;;28.30;99.90;;;;;;5062440;28;19958;-69
2021/05/16 07:04:37;;;;;;;;;;;28.30;99.90;;;;;;5059430;28;19917;-68
2021/05/16 07:07:03;;;;;;;;;;;28.50;99.90;;;;;;5061367;28;19959;-69
2021/05/16 07:09:28;;;;;;;;;;;28.30;99.90;;;;;;5057811;28;19913;-66
2021/05/16 07:11:54;;;;;;;;;;;28.00;99.90;;;;;;5057006;28;19998;-69
2021/05/16 07:14:19;;;;;;;;;;;28.70;99.90;;;;;;5059223;28;19917;-69
2021/05/16 07:16:45;;;;;;;;;;;29.10;99.90;;;;;;5061064;28;19988;-69
2021/05/16 07:19:10;;;;;;;;;;;28.10;99.90;;;;;;5052088;28;19917;-67
2021/05/16 07:21:36;;;;;;;;;;;28.50;99.90;;;;;;5059528;28;19917;-69
2021/05/16 07:24:02;;;;;;;;;;;29.20;99.90;;;;;;5061177;28;19913;-68
2021/05/16 07:26:27;;;;;;;;;;;30.20;99.90;;;;;;5061386;28;20288;-68
2021/05/16 07:28:53;;;;;;;;;;;30.70;99.90;;;;;;5056592;28;20268;-66
2021/05/16 07:31:18;;;;;;;;;;;31.30;99.90;;;;;;5056053;28;20396;-70
2021/05/16 07:33:44;;;;;;;;;;;32.00;99.90;;;;;;5058547;28;19997;-69
2021/05/16 07:36:10;;;;;;;;;;;32.40;99.90;;;;;;5056173;28;20373;-69
2021/05/16 07:38:35;;;;;;;;;;;32.00;99.90;;;;;;5057503;28;19962;-67
2021/05/16 07:41:01;;;;;;;;;;;31.70;99.90;;;;;;5059475;28;20007;-67
2021/05/16 07:43:27;;;;;;;;;;;31.10;99.90;;;;;;5065196;28;20311;-69
2021/05/16 07:45:53;;;;;;;;;;;30.80;95.40;;;;;;5047406;28;19964;-69
2021/05/16 07:48:18;;;;;;;;;;;29.30;87.00;;;;;;5038542;28;19949;-70
2021/05/16 07:50:44;;;;;;;;;;;27.90;75.50;;;;;;5052793;28;20296;-69
2021/05/16 07:53:10;;;;;;;;;;;28.60;75.00;;;;;;5043020;28;20412;-68
2021/05/16 07:55:37;;;;;;;;;;;29.70;73.20;;;;;;5043399;28;19917;-69
2021/05/16 07:58:03;;;;;;;;;;;30.10;68.10;;;;;;5044063;28;20390;-69
2021/05/16 08:00:29;;;;;;;;;;;28.00;53.70;;;;;;5044211;28;19996;-68
2021/05/16 08:02:54;;;;;;;;;;;26.50;47.10;;;;;;5055123;28;20293;-68
2021/05/16 08:05:20;;;;;;;;;;;26.20;44.50;;;;;;5048707;28;19919;-68
2021/05/16 08:07:46;;;;;;;;;;;26.90;45.50;;;;;;5038610;28;19923;-68
2021/05/16 08:10:12;;;;;;;;;;;27.20;44.00;;;;;;5042016;28;19913;-68
2021/05/16 08:12:38;;;;;;;;;;;26.70;40.90;;;;;;5044039;28;20742;-68
2021/05/16 08:15:04;;;;;;;;;;;25.50;34.10;;;;;;5038102;28;19960;-68
2021/05/16 08:17:30;;;;;;;;;;;24.30;29.50;;;;;;5038083;28;19916;-68
2021/05/16 08:19:55;;;;;;;;;;;23.50;26.90;;;;;;5045975;28;20225;-69
2021/05/16 08:22:21;;;;;;;;;;;22.90;25.60;;;;;;5045704;28;20065;-70
2021/05/16 08:24:47;;;;;;;;;;;24.00;28.70;;;;;;5047675;28;19909;-69
2021/05/16 08:27:12;;;;;;;;;;;25.50;33.30;;;;;;5041872;28;19921;-69
2021/05/16 08:29:38;;;;;;;;;;;27.70;39.20;;;;;;5038847;28;20008;-69
2021/05/16 08:32:05;;;;;;;;;;;29.30;42.20;;;;;;5045404;28;19921;-69
2021/05/16 08:34:31;;;;;;;;;;;30.00;41.20;;;;;;5040625;28;20356;-69
2021/05/16 08:36:56;;;;;;;;;;;32.00;43.60;;;;;;5041484;28;19917;-68
2021/05/16 08:39:22;;;;;;;;;;;33.80;43.90;;;;;;5044652;28;19917;-69
2021/05/16 08:41:48;;;;;;;;;;;34.40;39.20;;;;;;5042219;28;20691;-69
2021/05/16 08:44:14;;;;;;;;;;;34.50;32.80;;;;;;5040853;28;19932;-69
2021/05/16 08:46:39;;;;;;;;;;;34.50;29.10;;;;;;5035557;28;19909;-69
2021/05/16 08:49:05;;;;;;;;;;;33.40;23.40;;;;;;5048050;28;20376;-69
2021/05/16 08:51:31;;;;;;;;;;;33.90;21.60;;;;;;5035745;28;19968;-69
2021/05/16 08:53:56;;;;;;;;;;;34.90;20.40;;;;;;5040460;28;19908;-69
2021/05/16 08:56:22;;;;;;;;;;;36.10;18.20;;;;;;5040819;28;19989;-66
2021/05/16 08:58:47;;;;;;;;;;;34.50;11.40;;;;;;5043238;28;19909;-69
2021/05/16 09:01:23;;;;;;;;;;;33.20;5.20;;;;;;5034998;28;19916;-69
2021/05/16 09:03:49;;;;;;;;;;;31.60;1.00;;;;;;5037044;28;20393;-68
2021/05/16 09:06:15;;;;;;;;;;;30.90;1.00;;;;;;5062838;28;19927;-67
2021/05/16 09:08:41;;;;;;;;;;;29.90;1.00;;;;;;5068553;28;19990;-67
2021/05/16 09:11:06;;;;;;;;;;;29.40;1.00;;;;;;5048976;28;19913;-67
2021/05/16 09:13:32;;;;;;;;;;;28.40;1.00;;;;;;5043032;28;19917;-67
2021/05/16 09:16:07;;;;;;;;;;;27.20;1.00;;;;;;5039377;28;19913;-67
2021/05/16 09:18:36;;;;;;;;;;;25.80;1.00;;;;;;5034340;28;19980;-67
2021/05/16 09:21:17;;;;;;;;;;;23.80;1.00;;;;;;5043543;28;20015;-66
2021/05/16 09:23:43;;;;;;;;;;;22.00;1.00;;;;;;5034865;28;20326;-66
2021/05/16 09:26:12;;;;;;;;;;;21.30;1.00;;;;;;5037992;28;19935;-66
2021/05/16 09:28:38;;;;;;;;;;;20.70;1.00;;;;;;5033365;28;19917;-66
2021/05/16 09:31:06;;;;;;;;;;;20.40;1.00;;;;;;5033902;28;19923;-67
2021/05/16 09:33:32;;;;;;;;;;;20.10;1.00;;;;;;5031345;28;19917;-67
2021/05/16 09:36:03;;;;;;;;;;;19.90;1.00;;;;;;5042486;28;19917;-66
2021/05/16 09:38:28;;;;;;;;;;;19.70;1.00;;;;;;5045919;28;19951;-67
2021/05/16 09:40:54;;;;;;;;;;;19.40;1.00;;;;;;5042687;28;19919;-68
2021/05/16 09:43:27;;;;;;;;;;;18.80;1.00;;;;;;5037155;28;19919;-68
2021/05/16 09:46:06;;;;;;;;;;;18.20;1.50;;;;;;5044653;28;20369;-68
2021/05/16 09:48:35;;;;;;;;;;;17.60;2.90;;;;;;5046425;28;19923;-67
2021/05/16 09:51:07;;;;;;;;;;;17.40;6.40;;;;;;5040342;28;19913;-67
2021/05/16 09:53:32;;;;;;;;;;;18.40;12.70;;;;;;5038490;28;19968;-67
2021/05/16 09:56:14;;;;;;;;;;;20.30;17.90;;;;;;5036754;28;19963;-67
2021/05/16 09:58:40;;;;;;;;;;;23.00;25.00;;;;;;5037680;28;19919;-67
2021/05/16 10:01:05;;;;;;;;;;;26.60;33.00;;;;;;5013800;28;20305;-67
2021/05/16 10:03:32;;;;;;;;;;;29.30;38.40;;;;;;5038393;28;19913;-67
2021/05/16 10:05:58;;;;;;;;;;;30.90;39.90;;;;;;5037806;28;19916;-69
2021/05/16 10:08:23;;;;;;;;;;;31.70;38.40;;;;;;5038008;28;20267;-68
2021/05/16 10:10:49;;;;;;;;;;;32.40;34.80;;;;;;5055638;28;19967;-67
2021/05/16 10:13:15;;;;;;;;;;;32.80;31.10;;;;;;5040698;28;19999;-67
2021/05/16 10:15:40;;;;;;;;;;;33.00;28.60;;;;;;5031222;28;20660;-69
2021/05/16 10:18:08;;;;;;;;;;;33.70;27.60;;;;;;5048646;28;19920;-68
2021/05/16 10:20:34;;;;;;;;;;;34.40;26.00;;;;;;5048379;28;19920;-68
2021/05/16 10:23:04;;;;;;;;;;;34.90;24.60;;;;;;5041446;28;20326;-67
2021/05/16 10:25:47;;;;;;;;;;;35.30;21.50;;;;;;5039731;28;19913;-68
2021/05/16 10:28:15;;;;;;;;;;;35.80;19.50;;;;;;5032591;28;20354;-67
2021/05/16 10:31:01;;;;;;;;;;;36.00;16.40;;;;;;5035729;28;20044;-67
2021/05/16 10:33:33;;;;;;;;;;;35.60;21.50;;;;;;5040321;28;19917;-67
2021/05/16 10:36:00;;;;;;;;;;;34.00;4.90;;;;;;5037389;28;19923;-67
2021/05/16 10:38:40;;;;;;;;;;;34.10;1.60;;;;;;5051141;28;19955;-67
2021/05/16 10:41:23;;;;;;;;;;;34.50;1.00;;;;;;5045839;28;20651;-66
2021/05/16 10:43:48;;;;;;;;;;;34.10;1.00;;;;;;5038722;28;19912;-66
2021/05/16 10:46:32;;;;;;;;;;;33.30;1.00;;;;;;5039430;28;19916;-66
2021/05/16 10:49:17;;;;;;;;;;;33.30;1.00;;;;;;5051815;28;20257;-66
2021/05/16 10:51:42;;;;;;;;;;;33.20;1.00;;;;;;5056567;28;19927;-66
2021/05/16 10:54:26;;;;;;;;;;;32.90;1.00;;;;;;5057111;28;20398;-66
2021/05/16 10:57:09;;;;;;;;;;;32.50;1.00;;;;;;5045973;28;19960;-65
2021/05/16 10:59:38;;;;;;;;;;;31.20;1.00;;;;;;5037224;28;19916;-67
2021/05/16 11:02:04;;;;;;;;;;;30.80;1.00;;;;;;5041280;28;20428;-67
2021/05/16 11:04:49;;;;;;;;;;;29.60;1.00;;;;;;5042349;28;19916;-67
2021/05/16 11:07:31;;;;;;;;;;;29.60;1.00;;;;;;5031329;28;19956;-67
2021/05/16 11:10:15;;;;;;;;;;;29.20;1.00;;;;;;5039325;28;19913;-67
2021/05/16 11:12:40;;;;;;;;;;;28.50;1.00;;;;;;5057697;28;19932;-67
2021/05/16 11:15:06;;;;;;;;;;;26.90;1.00;;;;;;5035654;28;19917;-67
2021/05/16 11:17:32;;;;;;;;;;;27.10;1.00;;;;;;5036970;28;19919;-67
2021/05/16 11:19:57;;;;;;;;;;;27.40;1.00;;;;;;5041465;28;19913;-67
2021/05/16 11:22:23;;;;;;;;;;;27.40;1.00;;;;;;5055466;28;19920;-67
2021/05/16 11:24:50;;;;;;;;;;;27.70;1.00;;;;;;5053162;28;19944;-67
2021/05/16 11:27:21;;;;;;;;;;;27.70;1.00;;;;;;5055742;28;19915;-66
2021/05/16 11:29:51;;;;;;;;;;;26.90;1.00;;;;;;5049374;28;19923;-66
2021/05/16 11:32:19;;;;;;;;;;;25.80;1.00;;;;;;5050823;28;19939;-66
2021/05/16 11:34:44;;;;;;;;;;;25.30;1.00;;;;;;5049134;28;20413;-66
2021/05/16 11:37:16;;;;;;;;;;;24.60;1.00;;;;;;5033636;28;19919;-66
2021/05/16 11:39:42;;;;;;;;;;;24.30;1.00;;;;;;5037988;28;19924;-66
2021/05/16 11:42:07;;;;;;;;;;;23.80;1.00;;;;;;5040867;28;19917;-66
2021/05/16 11:44:34;;;;;;;;;;;24.00;1.00;;;;;;5037464;28;20553;-66
2021/05/16 11:46:59;;;;;;;;;;;24.30;1.00;;;;;;5035975;28;19917;-66
2021/05/16 11:49:26;;;;;;;;;;;23.90;1.00;;;;;;5055193;28;19916;-66
2021/05/16 11:51:55;;;;;;;;;;;23.40;1.00;;;;;;5052239;28;19916;-67
2021/05/16 11:54:24;;;;;;;;;;;23.30;1.00;;;;;;5042666;28;20374;-67
2021/05/16 11:56:50;;;;;;;;;;;23.60;1.00;;;;;;5046345;28;20418;-65
2021/05/16 11:59:16;;;;;;;;;;;23.60;1.00;;;;;;5044649;28;19938;-68
2021/05/16 12:01:42;;;;;;;;;;;23.70;1.00;;;;;;5048327;28;20541;-66
2021/05/16 12:04:12;;;;;;;;;;;23.60;1.00;;;;;;5037375;28;19971;-68
2021/05/16 12:06:42;;;;;;;;;;;22.90;1.00;;;;;;5048361;28;19920;-67
2021/05/16 12:09:13;;;;;;;;;;;21.50;1.00;;;;;;5035785;28;20000;-66
2021/05/16 12:11:40;;;;;;;;;;;20.70;1.00;;;;;;5055626;28;19917;-66
2021/05/16 12:14:06;;;;;;;;;;;20.80;1.00;;;;;;5043032;28;20293;-67
2021/05/16 12:16:32;;;;;;;;;;;21.20;1.00;;;;;;5040330;28;19956;-67
2021/05/16 12:18:58;;;;;;;;;;;21.40;1.00;;;;;;5036110;28;19955;-67
2021/05/16 12:21:24;;;;;;;;;;;21.30;1.00;;;;;;5048845;28;20120;-67
2021/05/16 12:23:51;;;;;;;;;;;20.90;1.00;;;;;;5032164;28;19963;-67
2021/05/16 12:26:17;;;;;;;;;;;21.10;1.00;;;;;;5040353;28;19956;-67
2021/05/16 12:28:43;;;;;;;;;;;21.60;1.00;;;;;;5039839;28;19917;-67
2021/05/16 12:31:09;;;;;;;;;;;22.30;1.00;;;;;;5033160;28;19909;-67
2021/05/16 12:33:38;;;;;;;;;;;22.20;1.00;;;;;;5045561;28;20472;-69
2021/05/16 12:36:04;;;;;;;;;;;22.20;1.00;;;;;;5038390;28;20365;-67
2021/05/16 12:38:39;;;;;;;;;;;21.90;1.00;;;;;;5039626;28;19913;-68
2021/05/16 12:41:15;;;;;;;;;;;21.80;1.00;;;;;;5031834;28;20023;-69
2021/05/16 12:43:41;;;;;;;;;;;22.10;1.00;;;;;;5037481;28;19967;-70
2021/05/16 12:46:07;;;;;;;;;;;22.30;1.00;;;;;;5037260;28;19917;-70
2021/05/16 12:48:33;;;;;;;;;;;21.80;1.00;;;;;;5044014;28;19913;-66
2021/05/16 12:50:59;;;;;;;;;;;21.50;1.00;;;;;;5040544;28;20003;-65
2021/05/16 12:53:25;;;;;;;;;;;21.50;1.00;;;;;;5037797;28;19924;-70
2021/05/16 12:55:52;;;;;;;;;;;21.00;1.00;;;;;;5042948;28;19912;-68
2021/05/16 12:58:22;;;;;;;;;;;21.50;1.00;;;;;;5035120;28;19913;-69
2021/05/16 13:00:54;;;;;;;;;;;21.30;1.00;;;;;;5033979;28;19913;-69
2021/05/16 13:03:27;;;;;;;;;;;20.90;1.00;;;;;;5037670;28;19917;-69
2021/05/16 13:05:53;;;;;;;;;;;20.70;1.00;;;;;;5040455;28;19956;-70
2021/05/16 13:08:52;;;;;;;;;;;21.30;1.00;;;;;;5047252;28;19956;-70
2021/05/16 13:11:17;;;;;;;;;;;21.60;1.00;;;;;;5016472;28;19912;-69
2021/05/16 13:13:43;;;;;;;;;;;21.70;1.00;;;;;;5032556;28;19924;-70
2021/05/16 13:16:13;;;;;;;;;;;21.80;1.00;;;;;;5030754;28;19979;-71
2021/05/16 13:18:41;;;;;;;;;;;21.30;1.00;;;;;;5057355;28;19959;-66
2021/05/16 13:21:17;;;;;;;;;;;20.50;1.00;;;;;;5041011;28;20004;-70
2021/05/16 13:23:43;;;;;;;;;;;20.10;1.00;;;;;;5047260;28;19917;-71
2021/05/16 13:26:08;;;;;;;;;;;19.80;1.00;;;;;;5038428;28;20363;-70
2021/05/16 13:28:35;;;;;;;;;;;19.40;1.00;;;;;;5036704;28;19959;-69
2021/05/16 13:31:02;;;;;;;;;;;18.90;1.00;;;;;;5039777;28;20015;-67
2021/05/16 13:33:31;;;;;;;;;;;18.60;1.00;;;;;;5036561;28;19917;-67
2021/05/16 13:36:01;;;;;;;;;;;18.40;1.00;;;;;;5046752;28;19912;-67
2021/05/16 13:38:30;;;;;;;;;;;18.30;1.00;;;;;;5046474;28;20011;-68
2021/05/16 13:41:14;;;;;;;;;;;18.40;1.00;;;;;;5047820;28;20501;-67
2021/05/16 13:43:40;;;;;;;;;;;18.40;1.00;;;;;;5047462;28;20437;-67
2021/05/16 13:46:05;;;;;;;;;;;18.20;1.00;;;;;;5047931;28;20007;-67
2021/05/16 13:48:32;;;;;;;;;;;18.10;1.00;;;;;;5047490;28;19991;-67
2021/05/16 13:50:58;;;;;;;;;;;18.00;1.00;;;;;;5047228;28;19959;-67
2021/05/16 13:53:24;;;;;;;;;;;18.10;1.00;;;;;;5047561;28;19917;-66
2021/05/16 13:55:49;;;;;;;;;;;18.10;1.00;;;;;;5047732;28;19955;-65
2021/05/16 13:58:15;;;;;;;;;;;18.10;1.00;;;;;;5047626;28;19909;-67
2021/05/16 14:00:40;;;;;;;;;;;18.00;1.00;;;;;;5046597;28;20003;-67
2021/05/16 14:03:06;;;;;;;;;;;18.10;1.00;;;;;;5047448;28;19909;-67
2021/05/16 14:05:34;;;;;;;;;;;17.80;2.80;;;;;;5048286;28;20338;-67
2021/05/16 14:08:00;;;;;;;;;;;17.80;6.20;;;;;;5048896;28;19917;-65
2021/05/16 14:10:26;;;;;;;;;;;17.90;8.70;;;;;;5051368;28;20038;-65
2021/05/16 14:12:51;;;;;;;;;;;17.90;11.80;;;;;;5051953;28;19934;-66
2021/05/16 14:15:17;;;;;;;;;;;17.90;14.30;;;;;;5051756;28;19927;-69
2021/05/16 14:17:42;;;;;;;;;;;18.10;17.70;;;;;;5051859;28;20652;-67
2021/05/16 14:20:09;;;;;;;;;;;18.30;19.00;;;;;;5051458;28;19991;-66
2021/05/16 14:22:35;;;;;;;;;;;18.30;20.50;;;;;;5052100;28;19916;-69
2021/05/16 14:25:00;;;;;;;;;;;18.30;22.00;;;;;;5050561;28;19912;-67
2021/05/16 14:27:28;;;;;;;;;;;18.50;24.50;;;;;;5051800;28;19909;-65
2021/05/16 14:29:54;;;;;;;;;;;18.50;25.30;;;;;;5050875;28;20312;-68